Time;durP1;ratioP1;P1;durP2;ratioP2;P2;SDS_P1;SDS_P2;PMS_P1;PMS_P2;Temp;Humidity;BMP_temperature;BMP_pressure;BME280_temperature;BME280_humidity;BME280_pressure;Samples;Min_cycle;Max_cycle;Signal;HPM_P1;HPM_P2
2023/12/08 00:01:15;;;;;;;34.53;20.27;;;4.40;99.90;;;;;;5009766;28;20084;-71
2023/12/08 00:03:43;;;;;;;16.77;12.98;;;4.40;99.90;;;;;;5009353;28;20072;-73
2023/12/08 00:06:10;;;;;;;19.13;13.02;;;4.30;99.90;;;;;;5010145;28;20348;-74
2023/12/08 00:08:39;;;;;;;14.15;10.60;;;4.30;99.90;;;;;;5009162;28;20037;-74
2023/12/08 00:11:07;;;;;;;15.32;11.65;;;4.40;99.90;;;;;;5005845;28;20034;-73
2023/12/08 00:13:34;;;;;;;16.65;11.48;;;4.40;99.90;;;;;;5009255;28;20034;-73
2023/12/08 00:16:03;;;;;;;15.05;11.35;;;4.40;99.90;;;;;;5010158;28;20065;-73
2023/12/08 00:18:30;;;;;;;14.52;11.52;;;4.40;99.90;;;;;;4991663;28;20488;-73
2023/12/08 00:20:58;;;;;;;12.98;9.60;;;4.50;99.90;;;;;;5009990;28;20125;-73
2023/12/08 00:23:25;;;;;;;18.20;10.85;;;4.50;99.90;;;;;;5008913;28;20497;-73
2023/12/08 00:25:53;;;;;;;16.20;10.98;;;4.60;99.90;;;;;;5009608;28;20381;-72
2023/12/08 00:28:20;;;;;;;12.82;10.45;;;4.50;99.90;;;;;;5009484;28;20057;-73
2023/12/08 00:30:47;;;;;;;15.68;11.65;;;4.60;99.90;;;;;;5009588;28;20030;-73
2023/12/08 00:33:15;;;;;;;13.95;10.88;;;4.60;99.90;;;;;;5009641;28;20034;-73
2023/12/08 00:35:42;;;;;;;15.65;11.20;;;4.80;99.90;;;;;;5008841;28;20069;-72
2023/12/08 00:38:10;;;;;;;13.43;10.25;;;4.80;99.90;;;;;;5009762;28;20037;-72
2023/12/08 00:40:37;;;;;;;13.73;10.15;;;4.70;99.90;;;;;;5005056;28;20030;-73
2023/12/08 00:43:04;;;;;;;17.40;10.82;;;4.80;99.90;;;;;;5009169;28;20065;-73
2023/12/08 00:45:32;;;;;;;14.13;10.27;;;4.80;99.90;;;;;;5009250;28;20195;-74
2023/12/08 00:47:59;;;;;;;15.30;11.38;;;4.60;99.90;;;;;;5009577;28;20412;-73
2023/12/08 00:50:27;;;;;;;14.07;9.80;;;4.70;99.90;;;;;;5008758;28;20037;-74
2023/12/08 00:52:54;;;;;;;14.65;10.15;;;4.80;99.90;;;;;;5008970;28;20124;-71
2023/12/08 00:55:21;;;;;;;12.23;10.00;;;4.90;99.90;;;;;;5012777;28;20096;-73
2023/12/08 00:57:49;;;;;;;15.57;11.18;;;5.00;99.90;;;;;;5012572;28;20377;-72
2023/12/08 01:00:17;;;;;;;11.32;9.07;;;4.80;99.90;;;;;;5012604;28;20085;-73
2023/12/08 01:02:45;;;;;;;11.52;9.05;;;4.80;99.90;;;;;;5012148;28;20473;-72
2023/12/08 01:05:12;;;;;;;9.45;8.23;;;4.80;99.90;;;;;;5012626;28;20037;-72
2023/12/08 01:07:39;;;;;;;9.63;8.13;;;4.80;99.90;;;;;;5012139;28;20066;-73
2023/12/08 01:10:07;;;;;;;10.85;8.27;;;4.80;99.90;;;;;;4992045;28;20523;-73
2023/12/08 01:12:35;;;;;;;10.85;8.13;;;4.90;99.90;;;;;;5011708;28;20107;-74
2023/12/08 01:15:04;;;;;;;11.85;8.32;;;4.90;99.90;;;;;;4992731;28;20104;-73
2023/12/08 01:17:31;;;;;;;9.50;7.47;;;4.80;99.90;;;;;;5011619;28;20034;-72
2023/12/08 01:19:59;;;;;;;12.52;8.65;;;4.80;99.90;;;;;;5012386;28;20044;-73
2023/12/08 01:22:27;;;;;;;10.95;8.73;;;4.90;99.90;;;;;;5012218;28;20030;-73
2023/12/08 01:24:55;;;;;;;11.13;8.20;;;5.00;99.90;;;;;;4995017;28;20073;-72
2023/12/08 01:27:23;;;;;;;12.27;8.63;;;5.10;99.90;;;;;;5011891;28;20394;-73
2023/12/08 01:29:50;;;;;;;8.98;7.72;;;5.10;99.90;;;;;;4994622;28;20366;-72
2023/12/08 01:32:18;;;;;;;10.25;8.18;;;5.20;99.90;;;;;;5012572;28;20515;-73
2023/12/08 01:34:45;;;;;;;10.43;8.15;;;5.20;99.90;;;;;;5011937;28;20499;-71
2023/12/08 01:37:13;;;;;;;10.13;8.35;;;5.30;99.90;;;;;;5012078;28;20042;-71
2023/12/08 01:39:40;;;;;;;11.57;9.07;;;5.30;99.90;;;;;;5012134;28;20069;-74
2023/12/08 01:42:07;;;;;;;11.93;9.35;;;5.20;99.90;;;;;;5011323;28;20034;-71
2023/12/08 01:44:35;;;;;;;14.02;10.70;;;5.20;99.90;;;;;;5011410;28;20137;-73
2023/12/08 01:47:06;;;;;;;13.90;10.43;;;5.10;99.90;;;;;;5011552;28;20148;-72
2023/12/08 01:49:34;;;;;;;16.17;12.20;;;5.00;99.90;;;;;;5011329;28;20050;-72
2023/12/08 01:52:02;;;;;;;26.02;15.68;;;5.00;99.90;;;;;;5011332;28;20037;-72
2023/12/08 01:54:30;;;;;;;25.00;17.08;;;5.00;99.90;;;;;;5011682;28;20117;-74
2023/12/08 01:56:58;;;;;;;28.80;16.73;;;4.90;99.90;;;;;;5011884;28;20030;-73
2023/12/08 01:59:25;;;;;;;23.27;15.95;;;4.90;99.90;;;;;;5011341;28;20042;-72
2023/12/08 02:01:53;;;;;;;29.30;16.98;;;4.90;99.90;;;;;;5011479;28;20038;-72
2023/12/08 02:04:21;;;;;;;23.67;15.32;;;4.90;99.90;;;;;;5011578;28;20389;-73
2023/12/08 02:06:48;;;;;;;22.60;15.60;;;4.90;99.90;;;;;;5011269;28;20044;-72
2023/12/08 02:09:17;;;;;;;22.05;15.50;;;4.90;99.90;;;;;;5011699;28;20038;-71
2023/12/08 02:11:44;;;;;;;15.55;12.18;;;4.80;99.90;;;;;;5010599;28;20045;-72
2023/12/08 02:14:13;;;;;;;25.98;15.25;;;4.90;99.90;;;;;;5011231;28;20044;-73
2023/12/08 02:16:50;;;;;;;27.10;15.70;;;5.00;99.90;;;;;;5010890;28;20041;-73
2023/12/08 02:19:19;;;;;;;26.85;16.63;;;5.00;99.90;;;;;;5008513;28;20045;-73
2023/12/08 02:21:47;;;;;;;23.73;14.68;;;5.00;99.90;;;;;;5010543;28;20121;-73
2023/12/08 02:24:19;;;;;;;22.88;14.75;;;5.00;99.90;;;;;;5011322;28;20485;-72
2023/12/08 02:26:48;;;;;;;24.52;14.30;;;5.00;99.90;;;;;;5007752;28;20354;-72
2023/12/08 02:29:16;;;;;;;24.02;15.35;;;5.00;99.90;;;;;;5011161;28;20038;-73
2023/12/08 02:31:55;;;;;;;20.35;13.82;;;5.10;99.90;;;;;;5009862;28;20306;-72
2023/12/08 02:34:25;;;;;;;16.95;13.27;;;5.10;99.90;;;;;;5010549;28;20038;-74
2023/12/08 02:36:54;;;;;;;21.27;13.50;;;5.00;99.90;;;;;;5011168;28;20056;-72
2023/12/08 02:39:24;;;;;;;19.17;13.63;;;5.00;99.90;;;;;;5009979;28;20034;-71
2023/12/08 02:41:51;;;;;;;18.07;12.77;;;5.00;99.90;;;;;;5010848;28;20044;-71
2023/12/08 02:44:19;;;;;;;20.55;13.32;;;5.00;99.90;;;;;;5010648;28;20268;-74
2023/12/08 02:46:46;;;;;;;25.52;14.65;;;4.90;99.90;;;;;;4974063;28;20038;-73
2023/12/08 02:49:13;;;;;;;23.52;15.57;;;4.90;99.90;;;;;;5007270;28;20124;-71
2023/12/08 02:51:41;;;;;;;25.98;16.52;;;5.00;99.90;;;;;;5010195;28;20045;-71
2023/12/08 02:54:08;;;;;;;24.15;15.88;;;4.90;99.90;;;;;;4992033;28;20056;-71
2023/12/08 02:56:36;;;;;;;22.58;15.75;;;4.90;99.90;;;;;;5010180;28;20068;-72
2023/12/08 02:59:03;;;;;;;25.88;16.02;;;4.90;99.90;;;;;;5010420;28;20470;-72
2023/12/08 03:01:30;;;;;;;21.02;15.68;;;4.90;99.90;;;;;;5009904;28;20037;-69
2023/12/08 03:03:58;;;;;;;24.75;16.10;;;4.90;99.90;;;;;;5010420;28;20058;-72
2023/12/08 03:06:25;;;;;;;23.02;15.23;;;4.90;99.90;;;;;;5010623;28;20065;-71
2023/12/08 03:08:53;;;;;;;22.02;14.80;;;4.90;99.90;;;;;;5010165;28;20733;-72
2023/12/08 03:11:20;;;;;;;24.00;13.77;;;4.90;99.90;;;;;;5010542;28;20045;-72
2023/12/08 03:13:48;;;;;;;19.70;13.45;;;4.80;99.90;;;;;;5010067;28;20525;-72
2023/12/08 03:16:16;;;;;;;18.13;12.32;;;4.70;99.90;;;;;;4992291;28;20049;-71
2023/12/08 03:18:43;;;;;;;19.17;13.27;;;4.80;99.90;;;;;;5010134;28;20050;-72
2023/12/08 03:21:21;;;;;;;16.77;12.13;;;4.80;99.90;;;;;;5009945;28;20042;-70
2023/12/08 03:23:48;;;;;;;19.75;13.65;;;4.80;99.90;;;;;;5009646;28;20052;-73
2023/12/08 03:26:16;;;;;;;15.70;11.88;;;4.80;99.90;;;;;;5010038;28;20038;-71
2023/12/08 03:28:43;;;;;;;15.50;10.95;;;4.80;99.90;;;;;;5004692;28;20061;-71
2023/12/08 03:31:31;;;;;;;14.88;11.75;;;4.70;99.90;;;;;;5010191;28;20657;-71
2023/12/08 03:33:58;;;;;;;13.10;10.57;;;4.80;99.90;;;;;;5008202;28;20420;-71
2023/12/08 03:36:26;;;;;;;16.50;11.45;;;4.70;99.90;;;;;;5009713;28;20109;-71
2023/12/08 03:38:53;;;;;;;15.93;11.13;;;4.70;99.90;;;;;;5009565;28;20100;-70
2023/12/08 03:41:38;;;;;;;14.85;11.05;;;4.70;99.90;;;;;;5009822;28;20492;-71
2023/12/08 03:44:06;;;;;;;14.73;10.23;;;4.70;99.90;;;;;;5009688;28;20037;-72
2023/12/08 03:46:33;;;;;;;14.85;10.85;;;4.60;99.90;;;;;;5009762;28;20038;-72
2023/12/08 03:49:00;;;;;;;15.45;11.88;;;4.70;99.90;;;;;;5009499;28;20068;-72
2023/12/08 03:51:28;;;;;;;12.77;10.02;;;4.60;99.90;;;;;;5009287;28;20046;-73
2023/12/08 03:53:55;;;;;;;13.20;10.30;;;4.70;99.90;;;;;;4990887;28;20030;-73
2023/12/08 03:56:23;;;;;;;14.27;10.75;;;4.70;99.90;;;;;;4991530;28;20030;-70
2023/12/08 03:58:50;;;;;;;14.40;11.07;;;4.70;99.90;;;;;;5006939;28;20117;-73
2023/12/08 04:01:18;;;;;;;13.18;10.18;;;4.70;99.90;;;;;;5010308;28;20072;-70
2023/12/08 04:03:46;;;;;;;15.88;10.80;;;4.80;99.90;;;;;;5009424;28;20120;-72
2023/12/08 04:06:31;;;;;;;14.70;11.32;;;4.90;99.90;;;;;;5009680;28;20037;-71
2023/12/08 04:08:59;;;;;;;15.55;11.63;;;4.90;99.90;;;;;;4989811;28;20033;-71
2023/12/08 04:11:26;;;;;;;16.80;11.55;;;4.90;99.90;;;;;;4992215;28;20042;-71
2023/12/08 04:13:54;;;;;;;14.63;11.50;;;4.90;99.90;;;;;;5009515;28;20042;-71
2023/12/08 04:16:22;;;;;;;15.18;11.63;;;4.80;99.90;;;;;;4991941;28;20442;-71
2023/12/08 04:18:49;;;;;;;16.48;11.57;;;4.80;99.90;;;;;;4992442;28;20033;-73
2023/12/08 04:21:18;;;;;;;13.77;10.63;;;4.80;99.90;;;;;;5009577;28;20054;-72
2023/12/08 04:23:45;;;;;;;13.70;11.27;;;4.80;99.90;;;;;;4991821;28;20066;-72
2023/12/08 04:26:13;;;;;;;11.85;9.95;;;4.80;99.90;;;;;;5006292;28;20034;-74
2023/12/08 04:28:40;;;;;;;15.38;10.68;;;4.80;99.90;;;;;;5010192;28;20049;-73
2023/12/08 04:31:08;;;;;;;15.50;10.02;;;4.80;99.90;;;;;;5013275;28;20108;-72
2023/12/08 04:33:35;;;;;;;14.90;10.48;;;4.80;99.90;;;;;;5011948;28;20045;-72
2023/12/08 04:36:03;;;;;;;13.48;9.77;;;4.90;99.90;;;;;;5012704;28;20030;-72
2023/12/08 04:38:47;;;;;;;14.05;9.98;;;4.90;99.90;;;;;;5011737;28;20029;-74
2023/12/08 04:41:15;;;;;;;16.02;10.52;;;4.80;99.90;;;;;;5013361;28;20038;-73
2023/12/08 04:43:42;;;;;;;17.92;11.35;;;4.90;99.90;;;;;;5011074;28;20440;-73
2023/12/08 04:46:10;;;;;;;11.95;10.15;;;5.00;99.90;;;;;;5012856;28;20037;-74
2023/12/08 04:48:38;;;;;;;17.58;11.45;;;5.00;99.90;;;;;;5012536;28;20049;-74
2023/12/08 04:51:06;;;;;;;15.63;11.45;;;5.00;99.90;;;;;;5012814;28;20053;-72
2023/12/08 04:53:33;;;;;;;15.23;11.88;;;5.00;99.90;;;;;;5012283;28;20042;-73
2023/12/08 04:56:01;;;;;;;14.10;11.10;;;5.00;99.90;;;;;;5012878;28;20056;-72
2023/12/08 04:58:28;;;;;;;14.70;10.35;;;5.00;99.90;;;;;;5012177;28;20068;-73
2023/12/08 05:00:55;;;;;;;16.50;11.77;;;5.00;99.90;;;;;;5012475;28;20041;-72
2023/12/08 05:03:23;;;;;;;15.45;11.18;;;4.90;99.90;;;;;;5012639;28;20042;-74
2023/12/08 05:05:51;;;;;;;16.50;11.57;;;4.90;99.90;;;;;;5012578;28;20035;-72
2023/12/08 05:08:18;;;;;;;16.73;11.57;;;5.00;99.90;;;;;;5012453;28;20065;-71
2023/12/08 05:10:45;;;;;;;13.90;10.32;;;5.00;99.90;;;;;;5012641;28;20113;-71
2023/12/08 05:13:13;;;;;;;13.38;10.85;;;5.00;99.90;;;;;;5008174;28;20064;-71
2023/12/08 05:15:40;;;;;;;14.45;10.57;;;5.00;99.90;;;;;;5012334;28;20030;-73
2023/12/08 05:18:07;;;;;;;13.77;10.57;;;5.00;99.90;;;;;;5012535;28;20432;-70
2023/12/08 05:20:35;;;;;;;14.45;10.68;;;4.90;99.90;;;;;;5011825;28;20040;-72
2023/12/08 05:23:02;;;;;;;13.52;10.45;;;5.00;99.90;;;;;;5012357;28;20735;-74
2023/12/08 05:25:29;;;;;;;15.77;10.88;;;5.00;99.90;;;;;;5012317;28;20113;-70
2023/12/08 05:27:57;;;;;;;13.77;11.10;;;4.90;99.90;;;;;;5011761;28;20045;-71
2023/12/08 05:30:24;;;;;;;15.48;10.38;;;4.90;99.90;;;;;;4993441;28;20033;-71
2023/12/08 05:32:51;;;;;;;17.13;11.07;;;4.90;99.90;;;;;;5011510;28;20034;-72
2023/12/08 05:35:19;;;;;;;12.50;10.55;;;4.90;99.90;;;;;;5012191;28;20443;-71
2023/12/08 05:37:46;;;;;;;14.90;10.60;;;4.90;99.90;;;;;;5011706;28;20103;-71
2023/12/08 05:40:13;;;;;;;14.70;10.20;;;4.90;99.90;;;;;;5011777;28;20135;-71
2023/12/08 05:42:41;;;;;;;14.10;10.02;;;4.80;99.90;;;;;;5011503;28;20065;-72
2023/12/08 05:45:09;;;;;;;13.65;10.25;;;4.80;99.90;;;;;;5012128;28;20072;-73
2023/12/08 05:47:36;;;;;;;13.48;10.32;;;4.80;99.90;;;;;;5011377;28;20088;-73
2023/12/08 05:50:05;;;;;;;15.05;11.35;;;4.90;99.90;;;;;;5011880;28;20377;-74
2023/12/08 05:52:32;;;;;;;14.02;10.70;;;5.00;99.90;;;;;;5011406;28;20088;-73
2023/12/08 05:54:59;;;;;;;14.75;10.18;;;5.00;99.90;;;;;;4994294;28;20069;-75
2023/12/08 05:57:27;;;;;;;13.80;10.02;;;5.00;99.90;;;;;;5011228;28;20038;-74
2023/12/08 05:59:55;;;;;;;13.80;9.50;;;5.00;99.90;;;;;;5012035;28;20038;-73
2023/12/08 06:02:22;;;;;;;14.25;9.98;;;5.10;99.90;;;;;;4992219;28;20478;-74
2023/12/08 06:04:50;;;;;;;15.20;9.93;;;5.10;99.90;;;;;;5011656;28;20573;-72
2023/12/08 06:07:17;;;;;;;12.38;10.05;;;5.10;99.90;;;;;;4989018;28;20042;-75
2023/12/08 06:09:44;;;;;;;11.70;9.65;;;5.10;99.90;;;;;;5011216;28;20053;-74
2023/12/08 06:12:12;;;;;;;12.43;9.27;;;5.10;99.90;;;;;;4990375;28;20038;-73
2023/12/08 06:14:40;;;;;;;12.52;9.23;;;5.10;99.90;;;;;;5010953;28;20515;-73
2023/12/08 06:17:07;;;;;;;12.40;9.60;;;5.00;99.90;;;;;;5011660;28;20061;-73
2023/12/08 06:19:34;;;;;;;13.07;9.93;;;5.00;99.90;;;;;;5010639;28;20370;-73
2023/12/08 06:22:02;;;;;;;11.55;9.55;;;5.00;99.90;;;;;;5011447;28;20036;-74
2023/12/08 06:24:29;;;;;;;12.10;8.70;;;5.00;99.90;;;;;;5010989;28;20045;-74
2023/12/08 06:26:56;;;;;;;12.27;9.07;;;5.00;99.90;;;;;;4993434;28;20441;-74
2023/12/08 06:29:24;;;;;;;10.63;8.93;;;5.00;99.90;;;;;;5010975;28;20038;-71
2023/12/08 06:31:54;;;;;;;10.63;8.70;;;5.00;99.90;;;;;;5010837;28;20034;-72
2023/12/08 06:34:21;;;;;;;15.35;9.93;;;5.10;99.90;;;;;;5010849;28;20061;-73
2023/12/08 06:36:48;;;;;;;13.48;9.55;;;5.10;99.90;;;;;;4993434;28;20041;-74
2023/12/08 06:39:16;;;;;;;11.73;9.43;;;5.00;99.90;;;;;;5010574;28;20037;-74
2023/12/08 06:41:43;;;;;;;12.52;9.38;;;4.90;99.90;;;;;;5010377;28;20516;-73
2023/12/08 06:44:11;;;;;;;12.43;9.43;;;4.80;99.90;;;;;;5010733;28;20042;-72
2023/12/08 06:46:39;;;;;;;16.00;11.50;;;4.80;99.90;;;;;;5010352;28;20038;-74
2023/12/08 06:49:06;;;;;;;13.68;10.02;;;4.60;99.90;;;;;;5010231;28;20037;-72
2023/12/08 06:51:37;;;;;;;16.00;10.50;;;4.80;99.90;;;;;;5009728;28;20048;-72
2023/12/08 06:54:04;;;;;;;;;;;4.90;99.90;;;;;;5011184;28;20045;-71
2023/12/08 06:56:32;;;;;;;12.73;10.25;;;4.70;99.90;;;;;;5009919;28;20370;-72
2023/12/08 06:58:59;;;;;;;18.80;10.73;;;4.70;99.90;;;;;;5010921;28;20053;-74
2023/12/08 07:01:26;;;;;;;16.52;10.52;;;4.70;99.90;;;;;;5007791;28;20038;-73
2023/12/08 07:03:54;;;;;;;15.20;10.80;;;4.80;99.90;;;;;;5010404;28;20046;-71
2023/12/08 07:06:22;;;;;;;14.85;9.93;;;4.80;99.90;;;;;;5010524;28;20424;-71
2023/12/08 07:08:50;;;;;;;16.65;10.35;;;4.90;99.90;;;;;;5009810;28;20468;-71
2023/12/08 07:11:17;;;;;;;15.60;10.65;;;4.90;99.90;;;;;;5010547;28;20101;-71
2023/12/08 07:13:44;;;;;;;16.02;10.45;;;4.90;99.90;;;;;;5009748;28;20477;-72
2023/12/08 07:16:12;;;;;;;13.25;10.13;;;5.00;99.90;;;;;;5010229;28;20092;-72
2023/12/08 07:18:40;;;;;;;15.77;10.38;;;5.00;99.90;;;;;;5009265;28;20033;-71
2023/12/08 07:21:08;;;;;;;15.63;10.27;;;5.00;99.90;;;;;;5010021;28;20383;-73
2023/12/08 07:23:35;;;;;;;14.40;10.93;;;5.20;99.90;;;;;;5009508;28;20607;-71
2023/12/08 07:26:04;;;;;;;14.23;9.85;;;5.30;99.90;;;;;;5010025;28;20034;-72
2023/12/08 07:28:32;;;;;;;19.63;11.00;;;5.30;99.90;;;;;;5010073;28;20053;-72
2023/12/08 07:30:59;;;;;;;17.25;11.55;;;5.40;99.90;;;;;;5009987;28;20033;-71
2023/12/08 07:33:26;;;;;;;16.88;12.35;;;5.50;99.90;;;;;;5009609;28;20046;-73
2023/12/08 07:35:54;;;;;;;19.15;11.82;;;5.50;99.90;;;;;;5009634;28;20038;-74
2023/12/08 07:38:21;;;;;;;17.23;12.27;;;5.50;99.90;;;;;;5010061;28;20034;-74
2023/12/08 07:40:48;;;;;;;17.40;12.40;;;5.60;99.90;;;;;;5009694;28;20030;-74
2023/12/08 07:43:16;;;;;;;19.63;13.23;;;5.60;99.90;;;;;;5004779;28;20116;-74
2023/12/08 07:45:43;;;;;;;16.80;10.80;;;5.50;99.90;;;;;;5009521;28;20417;-72
2023/12/08 07:48:10;;;;;;;14.60;11.05;;;5.50;99.90;;;;;;5010117;28;20042;-74
2023/12/08 07:50:38;;;;;;;14.38;10.63;;;5.10;99.90;;;;;;5009991;28;20422;-74
2023/12/08 07:53:05;;;;;;;15.80;10.55;;;5.30;99.90;;;;;;5009253;28;20033;-74
2023/12/08 07:55:32;;;;;;;15.43;10.30;;;5.40;99.90;;;;;;5009946;28;20393;-75
2023/12/08 07:57:59;;;;;;;16.95;11.73;;;5.40;99.90;;;;;;5009633;28;20034;-72
2023/12/08 08:00:27;;;;;;;15.25;11.20;;;5.40;99.90;;;;;;5009563;28;20121;-74
2023/12/08 08:02:54;;;;;;;15.55;12.18;;;5.50;99.90;;;;;;5010734;28;20396;-73
2023/12/08 08:05:24;;;;;;;20.10;12.90;;;5.60;99.90;;;;;;5013782;28;20512;-74
2023/12/08 08:07:51;;;;;;;19.88;12.05;;;5.50;99.90;;;;;;5013026;28;20430;-74
2023/12/08 08:10:18;;;;;;;17.95;12.57;;;5.30;99.90;;;;;;4994069;28;20362;-75
2023/12/08 08:12:46;;;;;;;14.75;12.10;;;5.20;99.90;;;;;;5013419;28;20034;-73
2023/12/08 08:15:13;;;;;;;17.95;12.38;;;5.10;99.90;;;;;;4995759;28;20139;-73
2023/12/08 08:17:40;;;;;;;17.48;12.75;;;5.10;99.90;;;;;;5013372;28;20037;-74
2023/12/08 08:20:08;;;;;;;18.65;12.55;;;5.10;99.90;;;;;;5013519;28;20026;-73
2023/12/08 08:22:35;;;;;;;16.15;12.32;;;5.20;99.90;;;;;;4995270;28;20048;-74
2023/12/08 08:25:03;;;;;;;16.20;11.70;;;5.20;99.90;;;;;;5013468;28;20388;-74
2023/12/08 08:27:31;;;;;;;15.95;11.65;;;5.10;99.90;;;;;;5013204;28;20038;-74
2023/12/08 08:29:59;;;;;;;17.15;12.13;;;5.10;99.90;;;;;;5011131;28;20481;-74
2023/12/08 08:32:27;;;;;;;17.27;12.15;;;5.20;99.90;;;;;;4994910;28;20037;-75
2023/12/08 08:34:55;;;;;;;15.73;11.38;;;5.30;99.90;;;;;;5013513;28;20038;-76
2023/12/08 08:37:25;;;;;;;15.00;11.48;;;5.30;99.90;;;;;;5011350;28;20056;-73
2023/12/08 08:39:52;;;;;;;15.02;10.80;;;5.40;99.90;;;;;;4991732;28;20038;-73
2023/12/08 08:42:20;;;;;;;15.70;10.75;;;5.60;99.90;;;;;;5013380;28;20030;-77
2023/12/08 08:44:47;;;;;;;16.00;11.85;;;5.60;99.90;;;;;;5012826;28;20855;-73
2023/12/08 08:47:14;;;;;;;14.98;10.68;;;5.50;99.90;;;;;;5012983;28;20052;-72
2023/12/08 08:49:42;;;;;;;14.23;10.63;;;5.40;99.90;;;;;;5011313;28;20445;-75
2023/12/08 08:52:09;;;;;;;15.38;11.48;;;5.50;99.90;;;;;;5012020;28;20498;-75
2023/12/08 08:54:37;;;;;;;15.70;11.27;;;5.50;99.90;;;;;;5012743;28;20115;-72
2023/12/08 08:57:04;;;;;;;18.45;12.07;;;5.50;99.90;;;;;;5013213;28;20033;-72
2023/12/08 08:59:32;;;;;;;14.85;10.27;;;5.60;99.90;;;;;;4995337;28;20313;-73
2023/12/08 09:01:59;;;;;;;14.20;10.20;;;5.70;99.90;;;;;;4995866;28;20092;-73
2023/12/08 09:04:26;;;;;;;12.93;10.13;;;5.60;99.90;;;;;;5011890;28;20048;-74
2023/12/08 09:06:56;;;;;;;14.80;10.77;;;5.80;99.90;;;;;;5011985;28;20149;-74
2023/12/08 09:09:23;;;;;;;16.75;11.63;;;5.80;99.90;;;;;;5012794;28;20042;-76
2023/12/08 09:11:51;;;;;;;12.98;10.57;;;6.00;99.90;;;;;;5012371;28;20083;-74
2023/12/08 09:14:18;;;;;;;18.10;11.20;;;6.00;99.90;;;;;;5012232;28;20046;-73
2023/12/08 09:16:48;;;;;;;19.58;11.30;;;5.90;99.90;;;;;;5011429;28;20524;-76
2023/12/08 09:19:15;;;;;;;13.55;10.57;;;5.70;99.90;;;;;;5012215;28;20046;-73
2023/12/08 09:21:43;;;;;;;15.80;10.55;;;5.70;99.90;;;;;;4994487;28;20056;-74
2023/12/08 09:24:21;;;;;;;13.88;10.57;;;5.90;99.90;;;;;;5012913;28;20104;-74
2023/12/08 09:26:49;;;;;;;14.10;10.25;;;5.80;99.90;;;;;;5007897;28;20092;-74
2023/12/08 09:29:16;;;;;;;15.00;11.13;;;5.80;99.90;;;;;;5011829;28;20473;-76
2023/12/08 09:31:44;;;;;;;14.50;10.25;;;5.90;99.90;;;;;;5010846;28;20121;-73
2023/12/08 09:34:11;;;;;;;17.27;11.55;;;6.00;99.90;;;;;;5011640;28;20041;-73
2023/12/08 09:36:39;;;;;;;16.50;10.88;;;6.20;99.90;;;;;;5011680;28;20033;-73
2023/12/08 09:39:08;;;;;;;16.38;10.80;;;6.30;99.90;;;;;;5011875;28;20038;-73
2023/12/08 09:41:39;;;;;;;14.25;11.10;;;6.40;99.90;;;;;;5011923;28;20045;-75
2023/12/08 09:44:13;;;;;;;15.57;10.65;;;6.50;99.90;;;;;;5011409;28;20358;-72
2023/12/08 09:46:44;;;;;;;16.17;11.38;;;6.60;99.90;;;;;;4992522;28;20042;-72
2023/12/08 09:49:28;;;;;;;17.02;12.05;;;6.70;99.90;;;;;;5011478;28;20068;-71
2023/12/08 09:51:57;;;;;;;20.17;10.95;;;6.60;99.90;;;;;;5011553;28;20034;-73
2023/12/08 09:54:24;;;;;;;16.50;11.02;;;6.60;99.90;;;;;;5011864;28;20057;-73
2023/12/08 09:56:53;;;;;;;14.52;11.18;;;6.60;99.90;;;;;;5011591;28;20160;-73
2023/12/08 09:59:29;;;;;;;20.13;11.80;;;6.60;99.90;;;;;;5011292;28;20153;-72
2023/12/08 10:01:56;;;;;;;20.13;12.38;;;6.60;99.90;;;;;;5008946;28;20030;-72
2023/12/08 10:04:26;;;;;;;15.23;11.32;;;6.60;99.90;;;;;;5011478;28;20366;-74
2023/12/08 10:06:56;;;;;;;19.60;12.13;;;6.60;99.90;;;;;;4993986;28;20042;-74
2023/12/08 10:09:25;;;;;;;14.15;10.75;;;6.60;99.90;;;;;;5011572;28;20046;-74
2023/12/08 10:11:52;;;;;;;15.75;11.18;;;6.60;99.90;;;;;;4973295;28;20042;-73
2023/12/08 10:14:21;;;;;;;16.25;12.23;;;6.70;99.90;;;;;;5011097;28;20381;-73
2023/12/08 10:16:48;;;;;;;18.85;12.65;;;6.70;99.90;;;;;;5010711;28;20084;-73
2023/12/08 10:19:21;;;;;;;21.45;13.07;;;6.60;99.90;;;;;;5011347;28;20785;-73
2023/12/08 10:22:02;;;;;;;22.05;12.15;;;6.70;99.90;;;;;;5010951;28;20492;-73
2023/12/08 10:24:30;;;;;;;17.05;11.73;;;6.70;99.90;;;;;;4991799;28;20045;-74
2023/12/08 10:26:59;;;;;;;15.32;11.63;;;6.30;99.90;;;;;;4992817;28;20362;-74
2023/12/08 10:29:31;;;;;;;18.70;11.52;;;6.40;99.90;;;;;;5010173;28;20046;-70
2023/12/08 10:31:59;;;;;;;18.83;11.95;;;6.50;99.90;;;;;;5010853;28;20092;-70
2023/12/08 10:34:27;;;;;;;17.50;10.88;;;6.60;99.90;;;;;;4993345;28;20041;-72
2023/12/08 10:36:55;;;;;;;16.60;11.43;;;6.70;99.90;;;;;;5010735;28;20473;-70
2023/12/08 10:39:24;;;;;;;16.27;11.00;;;6.60;99.90;;;;;;4972980;28;20032;-73
2023/12/08 10:41:52;;;;;;;22.45;11.93;;;6.70;99.90;;;;;;5010416;28;20121;-75
2023/12/08 10:44:22;;;;;;;16.35;11.68;;;6.50;99.90;;;;;;4986547;28;20030;-71
2023/12/08 10:46:53;;;;;;;27.67;17.48;;;6.60;99.90;;;;;;5010169;28;20068;-72
2023/12/08 10:49:20;;;;;;;40.47;23.50;;;6.40;99.90;;;;;;5006389;28;20044;-74
2023/12/08 10:51:48;;;;;;;19.00;13.82;;;6.30;99.90;;;;;;5010334;28;20033;-74
2023/12/08 10:54:17;;;;;;;15.23;11.63;;;6.40;99.90;;;;;;5010005;28;20061;-72
2023/12/08 10:56:46;;;;;;;14.82;11.05;;;6.30;99.90;;;;;;5010402;28;20547;-72
2023/12/08 10:59:21;;;;;;;10.68;8.48;;;6.30;99.90;;;;;;5009965;28;20045;-71
2023/12/08 11:01:51;;;;;;;13.23;9.00;;;6.20;98.70;;;;;;4988192;28;20056;-72
2023/12/08 11:04:22;;;;;;;12.52;9.70;;;6.20;98.70;;;;;;5009027;28;20057;-73
2023/12/08 11:06:52;;;;;;;12.05;9.32;;;6.20;98.50;;;;;;5009183;28;20073;-73
2023/12/08 11:09:22;;;;;;;9.45;7.40;;;6.30;98.40;;;;;;5010492;28;20056;-72
2023/12/08 11:11:58;;;;;;;11.75;8.30;;;6.20;97.50;;;;;;5008680;28;20092;-70
2023/12/08 11:14:38;;;;;;;10.70;8.82;;;6.20;97.90;;;;;;5007176;28;20436;-71
2023/12/08 11:17:29;;;;;;;9.05;8.02;;;6.50;98.20;;;;;;5008530;28;20041;-75
2023/12/08 11:19:58;;;;;;;9.27;7.70;;;6.80;97.90;;;;;;5007751;28;20417;-73
2023/12/08 11:22:26;;;;;;;12.63;7.25;;;7.00;97.00;;;;;;5010541;28;20048;-73
2023/12/08 11:24:57;;;;;;;9.85;7.40;;;6.90;96.60;;;;;;5009627;28;20116;-75
2023/12/08 11:27:30;;;;;;;;;;;7.10;96.70;;;;;;5006979;28;20599;-74
2023/12/08 11:30:05;;;;;;;13.57;8.02;;;7.30;96.90;;;;;;5009181;28;19924;-73
2023/12/08 11:32:47;;;;;;;8.63;7.20;;;7.30;96.30;;;;;;5014713;28;20624;-73
2023/12/08 11:35:17;;;;;;;11.63;6.90;;;7.40;95.80;;;;;;5010756;28;20042;-74
2023/12/08 11:37:45;;;;;;;7.13;6.43;;;7.50;95.50;;;;;;5008763;28;20026;-74
2023/12/08 11:40:13;;;;;;;7.40;6.28;;;7.50;95.10;;;;;;5009825;28;20113;-72
2023/12/08 11:42:47;;;;;;;20.23;12.48;;;7.50;94.80;;;;;;5006442;28;20131;-73
2023/12/08 11:45:16;;;;;;;17.10;12.48;;;7.40;94.60;;;;;;4991730;28;20092;-76
2023/12/08 11:47:44;;;;;;;12.82;10.50;;;7.70;95.80;;;;;;5008577;28;20861;-77
2023/12/08 11:50:12;;;;;;;12.00;9.60;;;7.80;95.20;;;;;;5009080;28;20045;-73
2023/12/08 11:52:42;;;;;;;7.85;6.43;;;7.80;94.50;;;;;;5007804;28;20080;-73
2023/12/08 11:55:19;;;;;;;6.80;5.57;;;7.40;94.50;;;;;;5008705;28;20038;-74
2023/12/08 11:57:59;;;;;;;7.60;5.95;;;7.20;94.40;;;;;;5008562;28;20044;-73
2023/12/08 12:00:28;;;;;;;6.82;5.40;;;7.30;94.90;;;;;;4982100;28;20046;-72
2023/12/08 12:02:57;;;;;;;6.10;5.20;;;7.30;94.10;;;;;;4987319;28;20038;-79
2023/12/08 12:05:29;;;;;;;5.53;4.90;;;7.30;93.60;;;;;;5005503;28;20046;-72
2023/12/08 12:07:57;;;;;;;5.38;4.80;;;7.10;93.30;;;;;;5009223;28;20536;-73
2023/12/08 12:10:27;;;;;;;5.70;5.10;;;6.50;94.00;;;;;;5007489;28;20053;-73
2023/12/08 12:13:01;;;;;;;6.82;5.57;;;6.70;94.30;;;;;;5004494;28;20038;-74
2023/12/08 12:15:30;;;;;;;9.02;6.72;;;6.70;94.20;;;;;;5005116;28;20126;-73
2023/12/08 12:17:59;;;;;;;7.57;5.80;;;6.90;94.90;;;;;;4991252;28;20430;-72
2023/12/08 12:20:28;;;;;;;6.50;5.68;;;6.90;94.00;;;;;;5007791;28;20431;-76
2023/12/08 12:22:56;;;;;;;6.75;5.60;;;6.70;93.60;;;;;;5007856;28;20109;-75
2023/12/08 12:25:24;;;;;;;6.00;4.97;;;6.70;94.20;;;;;;5008749;28;20117;-74
2023/12/08 12:27:54;;;;;;;8.10;6.60;;;6.70;93.70;;;;;;5005203;28;20034;-73
2023/12/08 12:30:22;;;;;;;6.78;5.30;;;6.70;94.00;;;;;;5008728;28;20037;-78
2023/12/08 12:32:50;;;;;;;8.07;6.13;;;6.60;94.20;;;;;;5006373;28;20042;-76
2023/12/08 12:35:18;;;;;;;6.97;5.63;;;6.80;94.50;;;;;;4989837;28;20048;-72
2023/12/08 12:37:46;;;;;;;5.95;5.35;;;6.90;93.80;;;;;;5006402;28;20497;-75
2023/12/08 12:40:13;;;;;;;6.90;6.05;;;6.60;94.00;;;;;;5005408;28;20460;-75
2023/12/08 12:42:49;;;;;;;5.63;4.97;;;6.60;94.00;;;;;;5007211;28;20481;-74
2023/12/08 12:45:25;;;;;;;7.38;5.72;;;6.50;93.80;;;;;;5006580;28;20053;-71
2023/12/08 12:48:04;;;;;;;6.50;5.70;;;6.40;93.70;;;;;;5007860;28;20092;-75